createdAt,value
2022-12-09T00:01:37.920Z,-1.31
2022-12-09T00:04:06.319Z,-1.07
2022-12-09T00:06:34.448Z,-1.49
2022-12-09T00:09:03.836Z,-1.62
2022-12-09T00:11:31.708Z,-1.47
2022-12-09T00:14:00.994Z,-1.25
2022-12-09T00:16:28.911Z,-1.02
2022-12-09T00:18:57.899Z,-1.44
2022-12-09T00:21:28.081Z,-1.39
2022-12-09T00:23:57.768Z,-1.66
2022-12-09T00:26:29.419Z,-1.77
2022-12-09T00:28:57.769Z,-1.72
2022-12-09T00:31:28.489Z,-1.63
2022-12-09T00:33:58.842Z,-1.42
2022-12-09T00:36:27.670Z,-1.54
2022-12-09T00:38:56.414Z,-1.61
2022-12-09T00:41:24.748Z,-1.42
2022-12-09T00:43:54.394Z,-0.70
2022-12-09T00:46:22.756Z,-0.46
2022-12-09T00:48:50.570Z,-1.12
2022-12-09T00:51:20.870Z,-1.11
2022-12-09T00:53:48.696Z,-1.35
2022-12-09T00:56:16.553Z,-1.28
2022-12-09T00:58:44.518Z,-0.68
2022-12-09T01:01:13.683Z,-0.82
2022-12-09T01:03:41.767Z,-0.83
2022-12-09T01:06:11.340Z,-0.66
2022-12-09T01:08:40.115Z,-1.00
2022-12-09T01:11:13.025Z,-0.89
2022-12-09T01:13:41.331Z,-0.56
2022-12-09T01:16:17.356Z,-0.01
2022-12-09T01:18:46.069Z,-0.55
2022-12-09T01:21:14.031Z,-0.61
2022-12-09T01:23:42.544Z,-0.61
2022-12-09T01:26:10.786Z,-0.85
2022-12-09T01:28:40.916Z,-0.86
2022-12-09T01:31:10.868Z,-0.31
2022-12-09T01:33:40.075Z,-0.40
2022-12-09T01:36:10.701Z,-0.50
2022-12-09T01:38:38.964Z,-0.95
2022-12-09T01:41:07.122Z,-0.81
2022-12-09T01:43:35.700Z,-0.91
2022-12-09T01:46:03.540Z,-0.68
2022-12-09T01:48:33.862Z,-0.55
2022-12-09T01:51:08.785Z,-0.36
2022-12-09T01:53:39.319Z,-0.55
2022-12-09T01:56:12.204Z,-0.51
2022-12-09T01:58:40.365Z,-0.63
2022-12-09T02:01:08.530Z,-0.70
2022-12-09T02:03:36.494Z,-0.92
2022-12-09T02:06:05.973Z,-0.99
2022-12-09T02:08:34.046Z,-0.80
2022-12-09T02:11:11.268Z,-0.83
2022-12-09T02:13:48.491Z,-0.56
2022-12-09T02:16:20.349Z,-0.78
2022-12-09T02:18:56.183Z,-0.54
2022-12-09T02:21:33.484Z,-0.52
2022-12-09T02:24:06.586Z,-0.77
2022-12-09T02:26:42.646Z,-0.53
2022-12-09T02:29:36.210Z,-1.00
2022-12-09T02:32:28.664Z,-0.99
2022-12-09T02:35:03.242Z,-1.16
2022-12-09T02:37:39.617Z,-0.91
2022-12-09T02:40:12.325Z,-0.73
2022-12-09T02:42:42.600Z,-1.16
2022-12-09T02:45:12.992Z,-0.55
2022-12-09T02:47:45.493Z,-0.88
2022-12-09T02:50:17.238Z,-1.14
2022-12-09T02:52:47.273Z,-0.52
2022-12-09T02:55:17.781Z,-0.81
2022-12-09T02:57:45.631Z,-1.05
2022-12-09T03:00:16.413Z,-0.74
2022-12-09T03:02:46.981Z,-0.96
2022-12-09T03:05:24.662Z,-0.97
2022-12-09T03:08:01.375Z,-0.64
2022-12-09T03:10:34.340Z,-0.80
2022-12-09T03:13:07.915Z,-1.29
2022-12-09T03:15:38.911Z,-1.03
2022-12-09T03:18:12.596Z,-1.04
2022-12-09T03:20:44.064Z,-1.22
2022-12-09T03:23:16.483Z,-0.91
2022-12-09T03:25:47.990Z,-0.63
2022-12-09T03:28:19.912Z,-1.12
2022-12-09T03:30:48.442Z,-0.99
2022-12-09T03:33:19.219Z,-0.59
2022-12-09T03:35:51.854Z,-0.50
2022-12-09T03:38:22.299Z,-0.48
2022-12-09T03:40:56.412Z,-0.38
2022-12-09T03:43:26.248Z,-0.53
2022-12-09T03:45:55.626Z,-0.35
2022-12-09T03:48:24.986Z,-0.51
2022-12-09T03:50:59.522Z,-0.79
2022-12-09T03:53:34.850Z,0.01
2022-12-09T03:56:08.578Z,-0.34
2022-12-09T03:58:40.462Z,-0.12
2022-12-09T04:01:09.644Z,-0.47
2022-12-09T04:03:38.891Z,-0.34
2022-12-09T04:06:08.927Z,-0.22
2022-12-09T04:08:37.112Z,-0.17
2022-12-09T04:11:04.951Z,-0.46
2022-12-09T04:13:32.738Z,-0.37
2022-12-09T04:16:00.621Z,-0.69
2022-12-09T04:18:28.849Z,-0.33
2022-12-09T04:20:56.985Z,-0.47
2022-12-09T04:23:26.260Z,-0.17
2022-12-09T04:25:54.257Z,-0.18
2022-12-09T04:28:22.282Z,-0.17
2022-12-09T04:30:50.476Z,0.01
2022-12-09T04:33:18.616Z,-0.44
2022-12-09T04:35:46.389Z,0.04
2022-12-09T04:38:14.903Z,-0.26
2022-12-09T04:40:44.190Z,-0.17
2022-12-09T04:43:12.059Z,-0.11
2022-12-09T04:45:39.808Z,-0.72
2022-12-09T04:48:07.876Z,-0.52
2022-12-09T04:50:35.836Z,-0.35
2022-12-09T04:53:03.809Z,-0.42
2022-12-09T04:55:31.577Z,-0.55
2022-12-09T04:58:00.684Z,-0.31
2022-12-09T05:00:28.564Z,0.02
2022-12-09T05:02:56.416Z,0.04
2022-12-09T05:05:24.952Z,0.28
2022-12-09T05:07:53.314Z,-0.19
2022-12-09T05:10:21.536Z,-0.12
2022-12-09T05:12:49.721Z,-0.24
2022-12-09T05:15:19.147Z,-0.56
2022-12-09T05:17:47.026Z,-0.38
2022-12-09T05:20:15.721Z,-0.56
2022-12-09T05:22:44.094Z,-0.30
2022-12-09T05:25:12.127Z,-0.88
2022-12-09T05:27:40.052Z,-0.29
2022-12-09T05:30:09.830Z,0.23
2022-12-09T05:32:39.291Z,0.04
2022-12-09T05:35:07.610Z,-0.20
2022-12-09T05:37:35.670Z,-0.55
2022-12-09T05:40:03.874Z,-0.62
2022-12-09T05:42:36.419Z,-0.53
2022-12-09T05:45:08.322Z,-0.72
2022-12-09T05:47:36.972Z,-0.47
2022-12-09T05:50:08.879Z,-0.34
2022-12-09T05:52:37.809Z,-0.62
2022-12-09T05:55:06.941Z,-0.13
2022-12-09T05:57:36.042Z,-0.27
2022-12-09T06:00:06.793Z,-0.21
2022-12-09T06:02:35.202Z,-0.08
2022-12-09T06:05:04.069Z,-0.68
2022-12-09T06:07:33.889Z,-0.80
2022-12-09T06:10:02.124Z,-0.96
2022-12-09T06:12:30.464Z,-0.31
2022-12-09T06:14:58.325Z,-0.45
2022-12-09T06:17:26.260Z,-0.32
2022-12-09T06:19:54.361Z,-0.47
2022-12-09T06:22:22.442Z,-0.41
2022-12-09T06:24:56.931Z,-0.54
2022-12-09T06:27:25.252Z,-0.41
2022-12-09T06:29:53.516Z,-0.69
2022-12-09T06:32:21.721Z,-0.32
2022-12-09T06:34:50.131Z,-0.31
2022-12-09T06:37:18.813Z,-0.16
2022-12-09T06:39:47.930Z,-0.35
2022-12-09T06:42:17.349Z,-1.02
2022-12-09T06:44:45.473Z,-0.58
2022-12-09T06:47:13.404Z,-0.60
2022-12-09T06:49:41.233Z,-1.04
2022-12-09T06:52:09.149Z,-0.72
2022-12-09T06:54:37.105Z,-0.85
2022-12-09T06:57:05.090Z,-0.70
2022-12-09T06:59:34.629Z,-1.14
2022-12-09T07:02:02.814Z,-1.10
2022-12-09T07:04:31.229Z,-0.84
2022-12-09T07:06:59.268Z,-1.01
2022-12-09T07:09:27.720Z,-0.34
2022-12-09T07:11:55.875Z,-1.21
2022-12-09T07:14:23.601Z,-0.68
2022-12-09T07:16:53.669Z,-0.63
2022-12-09T07:19:23.978Z,-0.56
2022-12-09T07:21:52.594Z,-0.91
2022-12-09T07:24:21.319Z,-0.28
2022-12-09T07:26:49.558Z,-0.34
2022-12-09T07:29:18.034Z,-0.18
2022-12-09T07:31:47.657Z,-0.67
2022-12-09T07:34:17.465Z,-0.62
2022-12-09T07:36:45.439Z,-0.40
2022-12-09T07:39:14.700Z,-0.43
2022-12-09T07:41:43.389Z,0.13
2022-12-09T07:44:12.742Z,0.09
2022-12-09T07:46:41.038Z,-0.30
2022-12-09T07:49:09.427Z,-0.46
2022-12-09T07:51:39.512Z,0.31
2022-12-09T07:54:08.099Z,-0.03
2022-12-09T07:56:35.896Z,0.04
2022-12-09T07:59:07.151Z,-0.44
2022-12-09T08:01:36.440Z,-0.10
2022-12-09T08:04:06.450Z,0.32
2022-12-09T08:06:35.231Z,0.99
2022-12-09T08:09:07.120Z,1.09
2022-12-09T08:11:35.971Z,0.85
2022-12-09T08:14:12.251Z,0.79
2022-12-09T08:16:42.019Z,-0.39
2022-12-09T08:19:10.536Z,0.04
2022-12-09T08:21:39.854Z,0.09
2022-12-09T08:24:11.101Z,0.10
2022-12-09T08:26:39.972Z,-0.39
2022-12-09T08:29:09.978Z,-0.14
2022-12-09T08:31:41.609Z,-0.37
2022-12-09T08:34:10.384Z,-0.54
2022-12-09T08:36:39.264Z,-0.27
2022-12-09T08:39:07.782Z,-0.40
2022-12-09T08:41:39.122Z,-0.41
2022-12-09T08:44:09.706Z,0.04
2022-12-09T08:46:39.434Z,-0.28
2022-12-09T08:49:08.494Z,-0.27
2022-12-09T08:51:37.435Z,-0.68
2022-12-09T08:54:06.872Z,-0.16
2022-12-09T08:56:36.704Z,-0.85
2022-12-09T08:59:06.018Z,-0.45
2022-12-09T09:01:35.770Z,-0.51
2022-12-09T09:04:08.127Z,-0.11
2022-12-09T09:06:36.729Z,-0.10
2022-12-09T09:09:05.828Z,-0.12
2022-12-09T09:11:34.601Z,-0.24
2022-12-09T09:14:06.661Z,-0.25
2022-12-09T09:16:35.524Z,-0.46
2022-12-09T09:19:05.833Z,-0.34
2022-12-09T09:21:34.959Z,-0.14
2022-12-09T09:24:03.894Z,-0.31
2022-12-09T09:26:31.738Z,-0.20
2022-12-09T09:28:59.851Z,-0.33
2022-12-09T09:31:29.004Z,-0.77
2022-12-09T09:33:57.024Z,-0.46
2022-12-09T09:36:26.392Z,-0.31
2022-12-09T09:38:56.113Z,0.12
2022-12-09T09:41:32.520Z,-0.24
2022-12-09T09:44:01.250Z,-0.48
2022-12-09T09:46:38.278Z,-0.13
2022-12-09T09:49:12.217Z,-0.23
2022-12-09T09:51:40.701Z,-0.01
2022-12-09T09:54:10.951Z,-0.14
2022-12-09T09:56:43.816Z,-0.12
2022-12-09T09:59:21.321Z,-0.10
2022-12-09T10:02:01.362Z,0.15
2022-12-09T10:04:53.640Z,-0.08
2022-12-09T10:07:26.370Z,-0.15
2022-12-09T10:10:04.142Z,-0.40
2022-12-09T10:12:40.495Z,-0.30
2022-12-09T10:15:13.357Z,-0.19
2022-12-09T10:17:51.188Z,0.04
2022-12-09T10:20:22.446Z,0.20
2022-12-09T10:22:54.940Z,0.61
2022-12-09T10:25:25.898Z,0.28
2022-12-09T10:28:00.965Z,0.42
2022-12-09T10:30:36.242Z,0.56
2022-12-09T10:33:11.894Z,0.68
2022-12-09T10:35:39.868Z,0.37
2022-12-09T10:38:11.175Z,0.67
2022-12-09T10:40:50.025Z,0.57
2022-12-09T10:43:39.008Z,0.18
2022-12-09T10:46:19.674Z,0.20
2022-12-09T10:48:57.590Z,0.42
2022-12-09T10:51:28.857Z,0.62
2022-12-09T10:53:59.890Z,0.38
2022-12-09T10:56:31.528Z,0.22
2022-12-09T10:59:18.974Z,0.18
2022-12-09T11:01:54.641Z,0.33
2022-12-09T11:04:27.125Z,0.33
2022-12-09T11:07:00.060Z,0.32
2022-12-09T11:09:31.225Z,0.41
2022-12-09T11:12:00.444Z,0.05
2022-12-09T11:14:34.992Z,0.69
2022-12-09T11:17:15.503Z,0.42
2022-12-09T11:19:47.972Z,0.54
2022-12-09T11:22:29.323Z,0.45
2022-12-09T11:25:10.933Z,0.83
2022-12-09T11:27:42.097Z,0.42
2022-12-09T11:30:15.632Z,0.67
2022-12-09T11:33:00.190Z,0.90
2022-12-09T11:35:34.955Z,0.62
2022-12-09T11:38:16.102Z,0.54
2022-12-09T11:40:44.544Z,0.49
2022-12-09T11:43:12.396Z,0.71
2022-12-09T11:45:41.915Z,0.92
2022-12-09T11:48:30.322Z,1.05
2022-12-09T11:51:03.416Z,0.66
2022-12-09T11:53:33.000Z,0.88
2022-12-09T11:56:05.504Z,1.12
2022-12-09T11:58:40.320Z,0.98
2022-12-09T12:01:12.967Z,1.09
2022-12-09T12:03:47.281Z,1.42
2022-12-09T12:06:22.594Z,1.42
2022-12-09T12:08:55.571Z,1.22
2022-12-09T12:11:28.931Z,1.33
2022-12-09T12:14:04.713Z,1.75
2022-12-09T12:16:39.535Z,1.88
2022-12-09T12:19:17.677Z,1.61
2022-12-09T12:22:08.951Z,1.71
2022-12-09T12:25:11.030Z,1.80
2022-12-09T12:27:59.160Z,2.07
2022-12-09T12:30:34.665Z,2.09
2022-12-09T12:36:13.478Z,2.00
2022-12-09T12:38:59.341Z,1.73
2022-12-09T12:41:32.397Z,1.88
2022-12-09T12:44:27.168Z,1.79
2022-12-09T12:47:14.915Z,2.19
2022-12-09T12:50:11.821Z,2.42
2022-12-09T12:52:56.949Z,2.69
2022-12-09T12:55:39.262Z,2.31
2022-12-09T12:58:15.373Z,2.29
2022-12-09T13:00:53.780Z,1.96
2022-12-09T13:03:26.448Z,1.79
2022-12-09T13:05:58.262Z,2.33
2022-12-09T13:08:34.156Z,2.12
2022-12-09T13:11:11.142Z,2.49
2022-12-09T13:13:43.533Z,2.39
2022-12-09T13:16:28.558Z,2.62
2022-12-09T13:19:12.490Z,2.40
2022-12-09T13:21:40.813Z,2.11
2022-12-09T13:24:22.704Z,1.86
2022-12-09T13:26:57.767Z,2.29
2022-12-09T13:29:35.756Z,2.45
2022-12-09T13:32:17.716Z,2.47
2022-12-09T13:34:51.482Z,2.21
2022-12-09T13:37:59.681Z,1.61
2022-12-09T13:40:35.269Z,1.47
2022-12-09T13:43:13.145Z,1.81
2022-12-09T13:45:51.842Z,1.54
2022-12-09T13:48:45.822Z,1.42
2022-12-09T13:51:14.726Z,1.97
2022-12-09T13:53:47.757Z,1.44
2022-12-09T13:56:24.136Z,1.21
2022-12-09T13:59:28.495Z,1.86
2022-12-09T14:02:01.418Z,1.80
2022-12-09T14:04:34.815Z,1.92
2022-12-09T14:07:17.261Z,1.60
2022-12-09T14:09:50.755Z,1.81
2022-12-09T14:13:06.158Z,1.08
2022-12-09T14:15:39.983Z,1.66
2022-12-09T14:18:30.845Z,1.38
2022-12-09T14:21:27.214Z,1.63
2022-12-09T14:24:35.507Z,1.71
2022-12-09T14:27:15.631Z,1.54
2022-12-09T14:30:01.799Z,1.34
2022-12-09T14:32:33.585Z,2.05
2022-12-09T14:35:06.088Z,2.03
2022-12-09T14:37:51.901Z,1.94
2022-12-09T14:40:30.982Z,2.13
2022-12-09T14:43:14.670Z,2.38
2022-12-09T14:45:49.442Z,1.56
2022-12-09T14:48:24.978Z,1.88
2022-12-09T14:51:08.417Z,1.54
2022-12-09T14:53:38.594Z,1.70
2022-12-09T14:56:07.038Z,1.77
2022-12-09T14:58:35.239Z,1.47
2022-12-09T15:01:05.559Z,1.19
2022-12-09T15:03:42.989Z,1.48
2022-12-09T15:06:18.749Z,0.92
2022-12-09T15:08:47.512Z,1.19
2022-12-09T15:11:17.958Z,1.14
2022-12-09T15:13:51.309Z,1.44
2022-12-09T15:16:21.383Z,1.46
2022-12-09T15:18:52.643Z,1.71
2022-12-09T15:21:31.466Z,1.29
2022-12-09T15:24:00.414Z,1.11
2022-12-09T15:26:30.317Z,1.89
2022-12-09T15:28:59.458Z,1.42
2022-12-09T15:31:28.867Z,1.24
2022-12-09T15:33:59.803Z,1.22
2022-12-09T15:36:31.160Z,0.86
2022-12-09T15:39:02.576Z,0.91
2022-12-09T15:41:51.728Z,1.04
2022-12-09T15:44:23.030Z,1.01
2022-12-09T15:46:53.004Z,0.76
2022-12-09T15:49:27.849Z,0.70
2022-12-09T15:51:57.265Z,0.81
2022-12-09T15:54:29.138Z,0.88
2022-12-09T15:56:59.651Z,0.83
2022-12-09T15:59:31.391Z,1.10
2022-12-09T16:02:00.499Z,1.27
2022-12-09T16:04:31.800Z,1.16
2022-12-09T16:07:05.948Z,1.26
2022-12-09T16:09:33.739Z,0.81
2022-12-09T16:12:01.723Z,0.89
2022-12-09T16:14:42.841Z,1.05
2022-12-09T16:17:22.016Z,1.16
2022-12-09T16:19:51.774Z,0.85
2022-12-09T16:22:25.220Z,0.93
2022-12-09T16:25:15.140Z,1.09
2022-12-09T16:27:46.312Z,0.89
2022-12-09T16:30:16.459Z,1.21
2022-12-09T16:32:45.729Z,1.74
2022-12-09T16:35:22.365Z,1.32
2022-12-09T16:38:17.140Z,1.89
2022-12-09T16:41:12.759Z,1.51
2022-12-09T16:43:58.471Z,1.55
2022-12-09T16:46:37.330Z,1.06
2022-12-09T16:49:05.406Z,1.22
2022-12-09T16:51:34.554Z,1.10
2022-12-09T16:54:02.809Z,1.41
2022-12-09T16:56:32.817Z,1.29
2022-12-09T16:59:00.794Z,0.67
2022-12-09T17:01:33.915Z,0.79
2022-12-09T17:04:05.137Z,0.55
2022-12-09T17:06:34.215Z,0.55
2022-12-09T17:09:02.003Z,1.06
2022-12-09T17:11:29.727Z,0.89
2022-12-09T17:13:57.557Z,0.47
2022-12-09T17:16:26.808Z,0.86
2022-12-09T17:18:54.849Z,0.85
2022-12-09T17:21:22.647Z,0.96
2022-12-09T17:23:51.789Z,0.85
2022-12-09T17:26:21.147Z,0.83
2022-12-09T17:28:49.863Z,0.69
2022-12-09T17:31:19.437Z,0.65
2022-12-09T17:33:47.599Z,0.74
2022-12-09T17:36:17.861Z,0.82
2022-12-09T17:38:46.088Z,0.71
2022-12-09T17:41:20.498Z,0.94
2022-12-09T17:43:48.598Z,0.62
2022-12-09T17:46:17.324Z,0.38
2022-12-09T17:48:45.229Z,0.56
2022-12-09T17:51:15.170Z,0.96
2022-12-09T17:53:43.905Z,1.11
2022-12-09T17:56:13.572Z,0.86
2022-12-09T17:58:43.462Z,0.84
2022-12-09T18:01:15.141Z,0.53
2022-12-09T18:04:02.639Z,0.80
2022-12-09T18:06:34.320Z,0.54
2022-12-09T18:09:03.667Z,0.82
2022-12-09T18:11:31.463Z,0.70
2022-12-09T18:14:01.050Z,0.71
2022-12-09T18:16:28.997Z,0.70
2022-12-09T18:18:56.981Z,0.58
2022-12-09T18:21:24.810Z,0.29
2022-12-09T18:23:52.562Z,0.20
2022-12-09T18:26:21.126Z,0.33
2022-12-09T18:28:54.559Z,0.41
2022-12-09T18:31:24.545Z,0.17
2022-12-09T18:33:53.014Z,0.29
2022-12-09T18:36:22.810Z,0.47
2022-12-09T18:38:51.003Z,0.08
2022-12-09T18:41:20.722Z,0.41
2022-12-09T18:43:51.009Z,0.09
2022-12-09T18:46:25.148Z,0.14
2022-12-09T18:48:58.577Z,0.28
2022-12-09T18:51:27.425Z,0.36
2022-12-09T18:53:55.256Z,0.14
2022-12-09T18:56:22.971Z,0.39
2022-12-09T18:59:05.980Z,0.16
2022-12-09T19:01:34.356Z,0.21
2022-12-09T19:04:05.056Z,0.17
2022-12-09T19:06:34.819Z,0.15
2022-12-09T19:09:05.017Z,-0.21
2022-12-09T19:11:34.391Z,-0.04
2022-12-09T19:14:02.787Z,0.00
2022-12-09T19:16:31.235Z,0.08
2022-12-09T19:19:05.525Z,0.39
2022-12-09T19:21:38.783Z,0.28
2022-12-09T19:24:07.492Z,0.46
2022-12-09T19:26:37.446Z,0.08
2022-12-09T19:29:08.029Z,-0.11
2022-12-09T19:31:37.623Z,0.34
2022-12-09T19:34:09.009Z,0.44
2022-12-09T19:36:38.283Z,0.41
2022-12-09T19:39:09.218Z,0.24
2022-12-09T19:41:37.744Z,-0.25
2022-12-09T19:44:06.342Z,-0.19
2022-12-09T19:46:34.864Z,-0.25
2022-12-09T19:49:02.650Z,-0.17
2022-12-09T19:51:30.548Z,0.08
2022-12-09T19:54:01.507Z,0.13
2022-12-09T19:56:29.732Z,-0.26
2022-12-09T19:58:58.227Z,0.08
2022-12-09T20:01:27.515Z,0.56
2022-12-09T20:04:05.274Z,0.40
2022-12-09T20:06:42.187Z,0.53
2022-12-09T20:09:13.971Z,-0.25
2022-12-09T20:11:42.757Z,0.24
2022-12-09T20:14:13.869Z,0.26
2022-12-09T20:16:44.685Z,0.50
2022-12-09T20:19:14.510Z,0.31
2022-12-09T20:21:42.363Z,0.28
2022-12-09T20:24:12.693Z,-0.26
2022-12-09T20:26:40.521Z,0.34
2022-12-09T20:29:10.885Z,0.26
2022-12-09T20:31:40.113Z,0.01
2022-12-09T20:34:12.029Z,0.15
2022-12-09T20:36:42.108Z,-0.19
2022-12-09T20:39:15.096Z,-0.18
2022-12-09T20:41:44.535Z,-0.34
2022-12-09T20:44:13.617Z,0.02
2022-12-09T20:46:45.424Z,0.24
2022-12-09T20:49:13.184Z,0.01
2022-12-09T20:51:43.989Z,0.25
2022-12-09T20:54:13.939Z,0.34
2022-12-09T20:56:42.284Z,0.37
2022-12-09T20:59:11.595Z,2.79
2022-12-09T21:01:39.755Z,3.91
2022-12-09T21:04:08.479Z,2.48
2022-12-09T21:06:39.208Z,1.15
2022-12-09T21:09:10.113Z,0.66
2022-12-09T21:11:39.714Z,0.53
2022-12-09T21:14:08.046Z,0.20
2022-12-09T21:16:39.709Z,0.46
2022-12-09T21:19:10.281Z,0.06
2022-12-09T21:21:40.378Z,0.30
2022-12-09T21:24:10.343Z,0.56
2022-12-09T21:26:39.741Z,0.23
2022-12-09T21:29:08.298Z,-0.24
2022-12-09T21:31:38.485Z,-0.11
2022-12-09T21:34:07.497Z,0.35
2022-12-09T21:36:36.856Z,0.61
2022-12-09T21:39:05.955Z,0.81
2022-12-09T21:41:35.529Z,0.03
2022-12-09T21:44:05.802Z,0.34
2022-12-09T21:46:36.031Z,0.23
2022-12-09T21:49:05.787Z,0.02
2022-12-09T21:51:34.796Z,0.29
2022-12-09T21:54:02.968Z,0.78
2022-12-09T21:56:32.772Z,0.66
2022-12-09T21:59:01.431Z,0.28
2022-12-09T22:01:32.279Z,0.24
2022-12-09T22:04:01.853Z,0.40
2022-12-09T22:06:30.413Z,0.36
2022-12-09T22:09:00.116Z,0.88
2022-12-09T22:11:29.777Z,0.40
2022-12-09T22:13:58.940Z,0.65
2022-12-09T22:16:29.738Z,0.50
2022-12-09T22:19:00.834Z,0.65
2022-12-09T22:21:30.837Z,0.82
2022-12-09T22:24:01.791Z,0.51
2022-12-09T22:26:30.321Z,0.60
2022-12-09T22:29:00.351Z,0.68
2022-12-09T22:31:30.035Z,0.46
2022-12-09T22:34:02.115Z,0.40
2022-12-09T22:36:30.042Z,0.95
2022-12-09T22:38:57.971Z,0.32
2022-12-09T22:41:27.490Z,0.49
2022-12-09T22:43:56.479Z,0.25
2022-12-09T22:46:26.072Z,0.28
2022-12-09T22:48:54.277Z,0.25
2022-12-09T22:51:25.302Z,0.19
2022-12-09T22:53:55.070Z,0.47
2022-12-09T22:56:23.757Z,0.51
2022-12-09T22:58:51.972Z,0.12
2022-12-09T23:01:23.347Z,0.56
2022-12-09T23:03:51.274Z,1.15
2022-12-09T23:06:19.088Z,0.33
2022-12-09T23:08:48.822Z,0.24
2022-12-09T23:11:19.248Z,0.70
2022-12-09T23:13:47.170Z,0.73
2022-12-09T23:16:17.227Z,0.93
2022-12-09T23:18:45.219Z,0.78
2022-12-09T23:21:14.611Z,0.18
2022-12-09T23:23:42.855Z,0.31
2022-12-09T23:26:15.059Z,0.68
2022-12-09T23:28:45.260Z,0.33
2022-12-09T23:31:14.739Z,0.73
2022-12-09T23:33:45.131Z,0.93
2022-12-09T23:36:16.438Z,0.50
2022-12-09T23:38:44.552Z,0.02
2022-12-09T23:41:13.622Z,0.01
2022-12-09T23:43:41.641Z,0.33
2022-12-09T23:46:15.635Z,0.32
2022-12-09T23:48:44.179Z,0.81
2022-12-09T23:51:13.785Z,0.64
2022-12-09T23:53:42.506Z,0.68
2022-12-09T23:56:13.908Z,0.44
2022-12-09T23:58:41.764Z,0.72
